Terminal Aerodrome Forecast
Issued by NWS Tulsa, OK

Home | Current Version | Previous Version | Text Only | Print | Product List | Glossary On
Versions: 1 2 3 4 5 6 7 8 9 10 11 12 13 14 15 16 17 18
000
FTUS44 KTSA 021100
TAFFSM
TAF
KFSM 021125Z 0212/0312 06008KT P6SM SCT025 BKN250
     FM021600 21006KT P6SM SCT040 BKN080
     FM030200 07006KT P6SM BKN200=

USA.gov is the U.S. government's official web portal to all federal, state and local government web resources and services.